Terminal Aerodrome Forecast
Issued by NWS Melbourne, FL

Current Version | Previous Version | Text Only | Print | Product List | Glossary On
Versions: 1 2 3 4 5 6 7 8 9 10 11 12 13 14
000
FTUS42 KMLB 250500
TAFDAB
TAF
KDAB 250520Z 2506/2606 31004KT P6SM SCT045
      TEMPO 2506/2509 BKN045
     FM251500 35010KT P6SM SCT035
     FM260000 36003KT P6SM SKC=

USA.gov is the U.S. government's official web portal to all federal, state and local government web resources and services.